Time;durP1;ratioP1;P1;durP2;ratioP2;P2;SDS_P1;SDS_P2;PMS_P1;PMS_P2;Temp;Humidity;BMP_temperature;BMP_pressure;BME280_temperature;BME280_humidity;BME280_pressure;Samples;Min_cycle;Max_cycle;Signal;HPM_P1;HPM_P2
2022/07/15 00:00:13;;;;;;;12.07;1.75;;;;;;;;;;4979288;28;20216;-64
2022/07/15 00:02:39;;;;;;;13.27;2.65;;;;;;;;;;4971276;28;20050;-64
2022/07/15 00:05:06;;;;;;;11.05;1.70;;;;;;;;;;4976444;28;20043;-64
2022/07/15 00:07:33;;;;;;;11.30;1.90;;;;;;;;;;4977085;28;20078;-64
2022/07/15 00:12:46;;;;;;;13.38;2.65;;;;;;;;;;4974848;28;20051;-64
2022/07/15 00:15:13;;;;;;;11.05;2.53;;;;;;;;;;4978685;28;20057;-64
2022/07/15 00:17:40;;;;;;;11.50;1.70;;;;;;;;;;4978533;28;20143;-64
2022/07/15 00:20:06;;;;;;;8.98;2.17;;;;;;;;;;4977170;28;20553;-64
2022/07/15 00:22:33;;;;;;;11.52;2.03;;;;;;;;;;4982372;28;20081;-64
2022/07/15 00:24:59;;;;;;;11.13;2.17;;;;;;;;;;4981872;28;20518;-64
2022/07/15 00:27:25;;;;;;;10.00;1.48;;;;;;;;;;4981970;28;20165;-64
2022/07/15 00:29:51;;;;;;;9.85;1.70;;;;;;;;;;4980457;28;20034;-64
2022/07/15 00:32:18;;;;;;;9.73;1.65;;;;;;;;;;4964106;28;20060;-64
2022/07/15 00:34:44;;;;;;;6.80;1.80;;;;;;;;;;4981993;28;20191;-64
2022/07/15 00:37:11;;;;;;;10.15;1.77;;;;;;;;;;4982324;28;20034;-64
2022/07/15 00:39:37;;;;;;;8.48;1.42;;;;;;;;;;4964456;28;20179;-64
2022/07/15 00:42:03;;;;;;;7.80;1.58;;;;;;;;;;4983490;28;20075;-64
2022/07/15 00:44:29;;;;;;;10.45;1.50;;;;;;;;;;4982444;28;20041;-64
2022/07/15 00:46:56;;;;;;;9.48;1.77;;;;;;;;;;4971986;28;20129;-64
2022/07/15 00:49:22;;;;;;;13.75;2.28;;;;;;;;;;4980038;28;20379;-64
2022/07/15 00:51:50;;;;;;;12.55;2.13;;;;;;;;;;4963363;28;20046;-64
2022/07/15 00:54:17;;;;;;;7.30;1.60;;;;;;;;;;4977266;28;20088;-64
2022/07/15 00:56:46;;;;;;;8.90;1.65;;;;;;;;;;4975375;28;20054;-64
2022/07/15 00:59:13;;;;;;;8.60;1.83;;;;;;;;;;4972631;28;20050;-64
2022/07/15 01:01:40;;;;;;;8.88;1.60;;;;;;;;;;4978936;28;20053;-64
2022/07/15 01:04:06;;;;;;;7.68;1.30;;;;;;;;;;4977399;28;20073;-64
2022/07/15 01:06:33;;;;;;;9.40;1.92;;;;;;;;;;4956860;28;20088;-64
2022/07/15 01:08:59;;;;;;;7.18;1.77;;;;;;;;;;4973452;28;20060;-64
2022/07/15 01:11:26;;;;;;;9.77;1.55;;;;;;;;;;4972464;28;20066;-64
2022/07/15 01:13:52;;;;;;;8.10;1.50;;;;;;;;;;4959967;28;20398;-64
2022/07/15 01:16:18;;;;;;;7.70;1.60;;;;;;;;;;4972814;28;20448;-63
2022/07/15 01:18:45;;;;;;;10.13;1.70;;;;;;;;;;4973093;28;20111;-64
2022/07/15 01:21:11;;;;;;;9.40;1.13;;;;;;;;;;4978072;28;20062;-64
2022/07/15 01:23:42;;;;;;;8.32;1.20;;;;;;;;;;4975215;28;20061;-64
2022/07/15 01:26:08;;;;;;;6.43;1.20;;;;;;;;;;4957498;28;20046;-64
2022/07/15 01:28:34;;;;;;;8.52;1.52;;;;;;;;;;4976809;28;20050;-62
2022/07/15 01:31:01;;;;;;;6.32;1.10;;;;;;;;;;4979565;28;20077;-64
2022/07/15 01:33:27;;;;;;;9.38;1.38;;;;;;;;;;4957503;28;20105;-64
2022/07/15 01:35:55;;;;;;;6.70;1.08;;;;;;;;;;4957797;28;20057;-64
2022/07/15 01:38:21;;;;;;;10.50;1.67;;;;;;;;;;4973276;28;20115;-64
2022/07/15 01:40:47;;;;;;;6.78;1.40;;;;;;;;;;4976142;28;20482;-64
2022/07/15 01:43:13;;;;;;;6.47;1.08;;;;;;;;;;4975173;28;20432;-64
2022/07/15 01:45:43;;;;;;;7.57;1.20;;;;;;;;;;4971617;28;20050;-64
2022/07/15 01:49:21;;;;;;;7.20;0.90;;;;;;;;;;4974072;28;20058;-64
2022/07/15 01:50:56;;;;;;;4.80;0.80;;;;;;;;;;4958013;28;20047;-64
2022/07/15 01:53:23;;;;;;;5.22;1.10;;;;;;;;;;4974801;28;20050;-64
2022/07/15 01:55:49;;;;;;;4.43;1.00;;;;;;;;;;4965567;28;20386;-64
2022/07/15 01:58:15;;;;;;;5.53;1.08;;;;;;;;;;4973625;28;20172;-64
2022/07/15 02:00:41;;;;;;;7.00;1.13;;;;;;;;;;4971209;28;20046;-63
2022/07/15 02:03:07;;;;;;;4.82;1.42;;;;;;;;;;4973806;28;20149;-64
2022/07/15 02:05:34;;;;;;;6.53;0.90;;;;;;;;;;4973984;28;20081;-64
2022/07/15 02:08:00;;;;;;;6.95;0.82;;;;;;;;;;4971852;28;20081;-64
2022/07/15 02:10:39;;;;;;;5.95;0.90;;;;;;;;;;4971632;28;20319;-64
2022/07/15 02:13:09;;;;;;;5.97;1.13;;;;;;;;;;4973403;28;20115;-64
2022/07/15 02:15:35;;;;;;;6.50;0.80;;;;;;;;;;4956517;28;20057;-64
2022/07/15 02:18:02;;;;;;;4.50;0.60;;;;;;;;;;4969392;28;20172;-64
2022/07/15 02:20:28;;;;;;;6.88;0.98;;;;;;;;;;4968058;28;20054;-64
2022/07/15 02:22:57;;;;;;;4.72;0.85;;;;;;;;;;4971805;28;20046;-64
2022/07/15 02:25:26;;;;;;;5.88;1.17;;;;;;;;;;4973154;28;20132;-63
2022/07/15 02:27:56;;;;;;;4.53;0.68;;;;;;;;;;4980498;28;20043;-63
2022/07/15 02:30:23;;;;;;;5.80;1.05;;;;;;;;;;4979296;28;20513;-63
2022/07/15 02:32:50;;;;;;;1.30;0.43;;;;;;;;;;4981037;28;20512;-64
2022/07/15 02:35:16;;;;;;;2.53;0.50;;;;;;;;;;4979589;28;20054;-64
2022/07/15 02:37:42;;;;;;;5.55;1.15;;;;;;;;;;4981219;28;20143;-64
2022/07/15 02:40:09;;;;;;;2.10;0.60;;;;;;;;;;4979966;28;20062;-64
2022/07/15 02:42:35;;;;;;;5.13;0.70;;;;;;;;;;4978933;28;20039;-64
2022/07/15 02:45:02;;;;;;;7.05;1.33;;;;;;;;;;4976379;28;20570;-64
2022/07/15 02:47:28;;;;;;;4.28;0.93;;;;;;;;;;4980902;28;20042;-64
2022/07/15 02:49:54;;;;;;;3.15;0.73;;;;;;;;;;4962648;28;20154;-64
2022/07/15 02:52:20;;;;;;;3.33;0.75;;;;;;;;;;4980482;28;20509;-64
2022/07/15 02:54:46;;;;;;;3.33;0.50;;;;;;;;;;4980082;28;20058;-64
2022/07/15 02:57:13;;;;;;;4.97;0.80;;;;;;;;;;4977281;28;20125;-64
2022/07/15 02:59:39;;;;;;;4.55;0.73;;;;;;;;;;4953863;28;20050;-64
2022/07/15 03:02:05;;;;;;;4.10;1.00;;;;;;;;;;4974560;28;20200;-64
2022/07/15 03:04:31;;;;;;;3.00;0.77;;;;;;;;;;4978331;28;20110;-64
2022/07/15 03:06:58;;;;;;;3.13;0.70;;;;;;;;;;4971285;28;20046;-64
2022/07/15 03:09:24;;;;;;;5.32;1.02;;;;;;;;;;4969632;28;20060;-64
2022/07/15 03:11:50;;;;;;;5.30;1.08;;;;;;;;;;4972200;28;20726;-64
2022/07/15 03:14:16;;;;;;;2.83;0.50;;;;;;;;;;4979729;28;20552;-64
2022/07/15 03:16:42;;;;;;;5.88;0.80;;;;;;;;;;4973224;28;20490;-64
2022/07/15 03:19:08;;;;;;;2.33;0.80;;;;;;;;;;4956620;28;20038;-64
2022/07/15 03:21:34;;;;;;;4.55;0.98;;;;;;;;;;4974829;28;20082;-64
2022/07/15 03:24:01;;;;;;;4.05;0.70;;;;;;;;;;4960326;28;20575;-64
2022/07/15 03:26:27;;;;;;;4.63;1.00;;;;;;;;;;4971684;28;20171;-64
2022/07/15 03:28:53;;;;;;;5.00;0.70;;;;;;;;;;4952163;28;20057;-64
2022/07/15 03:31:19;;;;;;;4.03;0.70;;;;;;;;;;4952433;28;20054;-64
2022/07/15 03:33:45;;;;;;;4.00;0.70;;;;;;;;;;4979153;28;20046;-64
2022/07/15 03:36:11;;;;;;;6.80;0.68;;;;;;;;;;4975910;28;20094;-63
2022/07/15 03:38:38;;;;;;;6.70;0.85;;;;;;;;;;4956618;28;20134;-64
2022/07/15 03:41:04;;;;;;;1.80;0.50;;;;;;;;;;4967077;28;20034;-64
2022/07/15 03:43:30;;;;;;;3.35;0.50;;;;;;;;;;4981657;28;20073;-64
2022/07/15 03:45:56;;;;;;;2.55;0.60;;;;;;;;;;4959890;28;20089;-64
2022/07/15 03:48:23;;;;;;;7.80;1.35;;;;;;;;;;4977871;28;20173;-64
2022/07/15 03:50:49;;;;;;;7.25;0.70;;;;;;;;;;4961104;28;20095;-64
2022/07/15 03:53:15;;;;;;;3.13;0.60;;;;;;;;;;4981009;28;20042;-64
2022/07/15 03:55:41;;;;;;;6.10;0.70;;;;;;;;;;4982762;28;20122;-64
2022/07/15 03:58:07;;;;;;;3.70;1.00;;;;;;;;;;4979956;28;20115;-65
2022/07/15 04:00:33;;;;;;;3.20;0.65;;;;;;;;;;4980417;28;20502;-64
2022/07/15 04:03:00;;;;;;;1.92;0.40;;;;;;;;;;4981370;28;20054;-64
2022/07/15 04:05:26;;;;;;;3.80;0.68;;;;;;;;;;4961473;28;20046;-65
2022/07/15 04:07:52;;;;;;;1.83;0.50;;;;;;;;;;4972909;28;20049;-64
2022/07/15 04:10:18;;;;;;;4.03;0.63;;;;;;;;;;4975474;28;20056;-64
2022/07/15 04:12:44;;;;;;;4.72;0.70;;;;;;;;;;4959784;28;20054;-64
2022/07/15 04:15:10;;;;;;;3.83;0.80;;;;;;;;;;4978661;28;20107;-64
2022/07/15 04:17:37;;;;;;;3.00;0.73;;;;;;;;;;4956403;28;20062;-64
2022/07/15 04:20:03;;;;;;;2.28;0.50;;;;;;;;;;4982365;28;20051;-64
2022/07/15 04:22:30;;;;;;;5.07;0.60;;;;;;;;;;4980229;28;20153;-64
2022/07/15 04:24:56;;;;;;;2.78;0.60;;;;;;;;;;4981360;28;20042;-64
2022/07/15 04:27:23;;;;;;;6.75;0.93;;;;;;;;;;4979534;28;20125;-64
2022/07/15 04:29:49;;;;;;;4.28;0.50;;;;;;;;;;4979460;28;20062;-64
2022/07/15 04:32:15;;;;;;;3.30;0.60;;;;;;;;;;4963590;28;20386;-64
2022/07/15 04:34:41;;;;;;;2.85;0.70;;;;;;;;;;4980801;28;20157;-64
2022/07/15 04:37:07;;;;;;;3.72;0.90;;;;;;;;;;4981033;28;20390;-64
2022/07/15 04:39:33;;;;;;;6.13;0.80;;;;;;;;;;4979638;28;20046;-64
2022/07/15 04:42:00;;;;;;;6.53;0.95;;;;;;;;;;4972658;28;20122;-64
2022/07/15 04:44:26;;;;;;;4.75;0.68;;;;;;;;;;4963300;28;20050;-64
2022/07/15 04:46:52;;;;;;;3.05;0.55;;;;;;;;;;4975337;28;20117;-64
2022/07/15 04:52:03;;;;;;;5.05;0.90;;;;;;;;;;4981972;28;20077;-64
2022/07/15 04:54:29;;;;;;;7.07;0.82;;;;;;;;;;4979208;28;20096;-64
2022/07/15 04:56:56;;;;;;;5.63;0.90;;;;;;;;;;4980424;28;20030;-64
2022/07/15 04:59:22;;;;;;;5.70;1.20;;;;;;;;;;4979199;28;20048;-64
2022/07/15 05:01:48;;;;;;;5.35;1.10;;;;;;;;;;4980697;28;20462;-64
2022/07/15 05:04:14;;;;;;;5.70;1.00;;;;;;;;;;4980072;28;20038;-64
2022/07/15 05:06:40;;;;;;;4.28;0.70;;;;;;;;;;4978514;28;20042;-64
2022/07/15 05:09:07;;;;;;;4.38;0.65;;;;;;;;;;4973444;28;20066;-64
2022/07/15 05:11:33;;;;;;;3.75;0.77;;;;;;;;;;4979634;28;20054;-64
2022/07/15 05:13:59;;;;;;;3.63;0.70;;;;;;;;;;4979595;28;20103;-64
2022/07/15 05:16:25;;;;;;;4.97;0.77;;;;;;;;;;4977325;28;20378;-63
2022/07/15 05:18:51;;;;;;;6.68;0.93;;;;;;;;;;4976669;28;20035;-64
2022/07/15 05:21:17;;;;;;;3.63;0.70;;;;;;;;;;4960906;28;20057;-64
2022/07/15 05:23:44;;;;;;;3.50;0.77;;;;;;;;;;4959635;28;20161;-64
2022/07/15 05:26:11;;;;;;;7.07;1.20;;;;;;;;;;4957870;28;20735;-64
2022/07/15 05:28:39;;;;;;;10.43;1.10;;;;;;;;;;4955788;28;20085;-64
2022/07/15 05:31:05;;;;;;;10.30;1.42;;;;;;;;;;4957015;28;20445;-64
2022/07/15 05:33:32;;;;;;;12.98;1.98;;;;;;;;;;4959421;28;20426;-64
2022/07/15 05:35:58;;;;;;;7.13;1.13;;;;;;;;;;4956903;28;20073;-64
2022/07/15 05:38:25;;;;;;;6.13;0.85;;;;;;;;;;4955882;28;20100;-64
2022/07/15 05:40:51;;;;;;;2.92;0.75;;;;;;;;;;4954606;28;20351;-64
2022/07/15 05:43:17;;;;;;;6.05;0.88;;;;;;;;;;4957176;28;20103;-63
2022/07/15 05:45:43;;;;;;;6.03;0.95;;;;;;;;;;4961151;28;20038;-64
2022/07/15 05:48:10;;;;;;;3.10;0.70;;;;;;;;;;4963700;28;20130;-64
2022/07/15 05:50:36;;;;;;;5.60;0.88;;;;;;;;;;4964729;28;20138;-64
2022/07/15 05:53:02;;;;;;;4.82;0.80;;;;;;;;;;4962502;28;20065;-64
2022/07/15 05:55:28;;;;;;;4.45;0.85;;;;;;;;;;4960073;28;20118;-64
2022/07/15 05:57:54;;;;;;;6.18;0.98;;;;;;;;;;4963618;28;20046;-64
2022/07/15 06:00:21;;;;;;;4.53;0.98;;;;;;;;;;4963816;28;20453;-64
2022/07/15 06:02:47;;;;;;;4.78;0.80;;;;;;;;;;4964012;28;20780;-63
2022/07/15 06:05:13;;;;;;;6.07;1.17;;;;;;;;;;4964649;28;20064;-64
2022/07/15 06:07:39;;;;;;;8.88;1.45;;;;;;;;;;4963002;28;20047;-64
2022/07/15 06:10:06;;;;;;;4.75;0.60;;;;;;;;;;4965015;28;20089;-64
2022/07/15 06:12:32;;;;;;;4.25;0.68;;;;;;;;;;4962385;28;20299;-64
2022/07/15 06:14:58;;;;;;;3.00;0.82;;;;;;;;;;4965205;28;20121;-65
2022/07/15 06:17:24;;;;;;;9.07;1.50;;;;;;;;;;4966667;28;20043;-64
2022/07/15 06:19:50;;;;;;;7.93;1.25;;;;;;;;;;4974559;28;20054;-65
2022/07/15 06:22:17;;;;;;;5.63;0.80;;;;;;;;;;4973152;28;20054;-65
2022/07/15 06:24:43;;;;;;;4.53;0.60;;;;;;;;;;4972504;28;20130;-65
2022/07/15 06:27:09;;;;;;;6.70;1.23;;;;;;;;;;4968997;28;20509;-65
2022/07/15 06:29:35;;;;;;;11.05;1.35;;;;;;;;;;4985131;28;20720;-64
2022/07/15 06:32:01;;;;;;;6.10;0.73;;;;;;;;;;4984688;28;20049;-64
2022/07/15 06:34:28;;;;;;;5.90;0.75;;;;;;;;;;4985243;28;20453;-65
2022/07/15 06:36:54;;;;;;;3.60;0.65;;;;;;;;;;4985044;28;20138;-64
2022/07/15 06:39:20;;;;;;;4.03;0.60;;;;;;;;;;4997925;28;20046;-65
2022/07/15 06:41:47;;;;;;;4.20;0.75;;;;;;;;;;4992697;28;20129;-65
2022/07/15 06:44:13;;;;;;;5.30;0.93;;;;;;;;;;4997517;28;20874;-65
2022/07/15 06:46:39;;;;;;;3.00;0.65;;;;;;;;;;4980635;28;20046;-64
2022/07/15 06:49:05;;;;;;;6.50;1.13;;;;;;;;;;4984930;28;20050;-65
2022/07/15 06:51:31;;;;;;;3.22;0.55;;;;;;;;;;4989679;28;20389;-65
2022/07/15 06:53:57;;;;;;;3.65;0.50;;;;;;;;;;4994138;28;20077;-65
2022/07/15 06:56:24;;;;;;;2.85;0.50;;;;;;;;;;4978005;28;20049;-65
2022/07/15 06:58:50;;;;;;;2.55;0.60;;;;;;;;;;4989248;28;20091;-64
2022/07/15 07:01:18;;;;;;;6.13;1.08;;;;;;;;;;4965238;28;20173;-65
2022/07/15 07:03:44;;;;;;;2.20;0.50;;;;;;;;;;4984090;28;20043;-65
2022/07/15 07:06:10;;;;;;;5.30;0.57;;;;;;;;;;4966667;28;20204;-65
2022/07/15 07:08:36;;;;;;;2.22;0.47;;;;;;;;;;4986179;28;20043;-65
2022/07/15 07:11:02;;;;;;;4.97;0.73;;;;;;;;;;4984823;28;20603;-64
2022/07/15 07:13:28;;;;;;;4.07;0.60;;;;;;;;;;4993487;28;20443;-64
2022/07/15 07:15:55;;;;;;;3.88;0.70;;;;;;;;;;4988606;28;20146;-65
2022/07/15 07:18:21;;;;;;;2.88;0.38;;;;;;;;;;4999488;28;20042;-65
2022/07/15 07:20:47;;;;;;;4.13;0.60;;;;;;;;;;4984297;28;20058;-65
2022/07/15 07:23:13;;;;;;;2.67;0.50;;;;;;;;;;4986592;28;20069;-65
2022/07/15 07:25:39;;;;;;;2.45;0.60;;;;;;;;;;4990656;28;20464;-65
2022/07/15 07:28:06;;;;;;;2.72;0.60;;;;;;;;;;4977980;28;20482;-65
2022/07/15 07:30:32;;;;;;;3.53;0.68;;;;;;;;;;4985643;28;20115;-65
2022/07/15 07:32:58;;;;;;;3.28;0.55;;;;;;;;;;4986551;28;20124;-65
2022/07/15 07:35:24;;;;;;;4.47;0.50;;;;;;;;;;4977676;28;20046;-65
2022/07/15 07:37:51;;;;;;;2.85;0.60;;;;;;;;;;4992854;28;20057;-64
2022/07/15 07:40:17;;;;;;;1.95;0.35;;;;;;;;;;4981850;28;20990;-65
2022/07/15 07:42:44;;;;;;;2.45;0.57;;;;;;;;;;4983284;28;20054;-65
2022/07/15 07:45:11;;;;;;;3.65;0.60;;;;;;;;;;4983132;28;20490;-65
2022/07/15 07:47:40;;;;;;;3.72;0.45;;;;;;;;;;4982846;28;20091;-65
2022/07/15 07:50:07;;;;;;;2.78;0.70;;;;;;;;;;4994427;28;20070;-65
2022/07/15 07:52:34;;;;;;;5.10;1.05;;;;;;;;;;4991725;28;20498;-65
2022/07/15 07:55:00;;;;;;;2.53;0.60;;;;;;;;;;4991988;28;20138;-65
2022/07/15 07:57:26;;;;;;;1.23;0.50;;;;;;;;;;4990085;28;20046;-65
2022/07/15 07:59:52;;;;;;;4.38;0.68;;;;;;;;;;4990391;28;20042;-64
2022/07/15 08:02:18;;;;;;;2.30;0.35;;;;;;;;;;4985837;28;20400;-65
2022/07/15 08:04:45;;;;;;;4.45;0.50;;;;;;;;;;4988286;28;20041;-66
2022/07/15 08:07:11;;;;;;;1.52;0.40;;;;;;;;;;4988168;28;20108;-65
2022/07/15 08:09:37;;;;;;;1.95;0.70;;;;;;;;;;5052381;28;20046;-65
2022/07/15 08:12:04;;;;;;;4.88;0.60;;;;;;;;;;4989382;28;20453;-65
2022/07/15 08:14:30;;;;;;;4.00;0.75;;;;;;;;;;4988004;28;20123;-65
2022/07/15 08:16:57;;;;;;;2.10;0.68;;;;;;;;;;4984272;28;20055;-65
2022/07/15 08:19:23;;;;;;;4.35;0.50;;;;;;;;;;4966352;28;20045;-65
2022/07/15 08:21:50;;;;;;;2.25;0.47;;;;;;;;;;4985703;28;20058;-65
2022/07/15 08:24:17;;;;;;;5.00;0.68;;;;;;;;;;4992719;28;20462;-65
2022/07/15 08:26:43;;;;;;;6.53;0.90;;;;;;;;;;4987565;28;20092;-65
2022/07/15 08:29:09;;;;;;;2.85;0.70;;;;;;;;;;4987288;28;20045;-65
2022/07/15 08:31:36;;;;;;;2.80;0.57;;;;;;;;;;4987369;28;20038;-64
2022/07/15 08:34:04;;;;;;;5.72;0.80;;;;;;;;;;4988845;28;20038;-65
2022/07/15 08:36:30;;;;;;;7.78;0.93;;;;;;;;;;4988474;28;20054;-65
2022/07/15 08:38:57;;;;;;;2.47;0.60;;;;;;;;;;5002407;28;20042;-65
2022/07/15 08:41:23;;;;;;;5.40;0.60;;;;;;;;;;5006146;28;20053;-65
2022/07/15 08:43:50;;;;;;;2.95;0.68;;;;;;;;;;4974212;28;20482;-65
2022/07/15 08:46:16;;;;;;;2.15;0.82;;;;;;;;;;4987215;28;20116;-65
2022/07/15 08:48:50;;;;;;;3.42;0.60;;;;;;;;;;4973248;28;20815;-65
2022/07/15 08:51:16;;;;;;;;;;;;;;;;;;4986918;28;20141;-65
2022/07/15 08:53:43;;;;;;;3.00;0.52;;;;;;;;;;4986005;28;19921;-64
2022/07/15 08:56:09;;;;;;;9.32;0.75;;;;;;;;;;4992138;28;20042;-64
2022/07/15 08:58:37;;;;;;;5.13;0.60;;;;;;;;;;4971368;28;20042;-64
2022/07/15 09:01:03;;;;;;;2.95;0.70;;;;;;;;;;4979995;28;20058;-64
2022/07/15 09:03:30;;;;;;;2.50;0.65;;;;;;;;;;4992418;28;20034;-64
2022/07/15 09:05:56;;;;;;;2.38;0.98;;;;;;;;;;4973964;28;20126;-64
2022/07/15 09:08:22;;;;;;;3.38;0.60;;;;;;;;;;4990191;28;20137;-66
2022/07/15 09:10:50;;;;;;;7.45;1.02;;;;;;;;;;4992236;28;20688;-65
2022/07/15 09:13:32;;;;;;;4.43;0.60;;;;;;;;;;4996328;28;20045;-65
2022/07/15 09:16:01;;;;;;;2.28;0.55;;;;;;;;;;4992120;28;20054;-65
2022/07/15 09:18:28;;;;;;;3.55;0.70;;;;;;;;;;4987592;28;20053;-65
2022/07/15 09:20:54;;;;;;;6.50;0.90;;;;;;;;;;4969031;28;20050;-65
2022/07/15 09:23:29;;;;;;;3.63;0.57;;;;;;;;;;4999531;28;20085;-65
2022/07/15 09:25:56;;;;;;;3.85;0.70;;;;;;;;;;4995931;28;20542;-65
2022/07/15 09:28:35;;;;;;;2.30;0.50;;;;;;;;;;4996136;28;20094;-65
2022/07/15 09:33:45;;;;;;;4.70;0.60;;;;;;;;;;4993789;28;20122;-65
2022/07/15 09:36:19;;;;;;;2.25;0.60;;;;;;;;;;4995634;28;20095;-64
2022/07/15 09:38:52;;;;;;;2.13;0.57;;;;;;;;;;4985418;28;20137;-65
2022/07/15 09:41:26;;;;;;;2.20;0.60;;;;;;;;;;4967112;28;20053;-65
2022/07/15 09:43:52;;;;;;;;;;;;;;;;;;4990169;28;20046;-65
2022/07/15 09:46:19;;;;;;;3.20;0.47;;;;;;;;;;4991025;28;19940;-65
2022/07/15 09:48:47;;;;;;;2.22;0.43;;;;;;;;;;4993546;28;20130;-65
2022/07/15 09:51:14;;;;;;;1.63;0.60;;;;;;;;;;4988742;28;20054;-65
2022/07/15 09:53:41;;;;;;;1.25;0.40;;;;;;;;;;4987729;28;20054;-65
2022/07/15 09:56:08;;;;;;;3.35;0.60;;;;;;;;;;4985971;28;20042;-65
2022/07/15 09:58:37;;;;;;;1.55;0.50;;;;;;;;;;4967376;28;20061;-65
2022/07/15 10:01:04;;;;;;;2.90;0.47;;;;;;;;;;4985920;28;20601;-65
2022/07/15 10:03:32;;;;;;;3.92;0.63;;;;;;;;;;4971059;28;20058;-65
2022/07/15 10:05:59;;;;;;;5.13;0.80;;;;;;;;;;4983660;28;20035;-65
2022/07/15 10:08:26;;;;;;;6.50;0.88;;;;;;;;;;4988821;28;20049;-65
2022/07/15 10:10:53;;;;;;;1.27;0.40;;;;;;;;;;4972834;28;20554;-65
2022/07/15 10:13:25;;;;;;;3.97;0.40;;;;;;;;;;4991313;28;20390;-65
2022/07/15 10:15:57;;;;;;;4.83;0.50;;;;;;;;;;4987146;28;20038;-65
2022/07/15 10:18:28;;;;;;;2.53;0.40;;;;;;;;;;4989921;28;20105;-65
2022/07/15 10:20:59;;;;;;;1.65;0.35;;;;;;;;;;4996932;28;20209;-65
2022/07/15 10:23:32;;;;;;;2.75;0.60;;;;;;;;;;4992037;28;20099;-65
2022/07/15 10:26:12;;;;;;;4.70;0.80;;;;;;;;;;4990653;28;20050;-65
2022/07/15 10:28:47;;;;;;;2.33;0.57;;;;;;;;;;4992674;28;20054;-65
2022/07/15 10:31:16;;;;;;;3.40;1.08;;;;;;;;;;4991805;28;20129;-65
2022/07/15 10:33:42;;;;;;;2.58;0.70;;;;;;;;;;4987462;28;20512;-65
2022/07/15 10:36:09;;;;;;;3.03;0.63;;;;;;;;;;4999904;28;20045;-65
2022/07/15 10:38:37;;;;;;;3.63;0.60;;;;;;;;;;4988057;28;20086;-65
2022/07/15 10:41:05;;;;;;;2.85;0.77;;;;;;;;;;4984388;28;20038;-65
2022/07/15 10:43:41;;;;;;;3.28;0.70;;;;;;;;;;4983366;28;20070;-65
2022/07/15 10:46:17;;;;;;;2.25;0.73;;;;;;;;;;4991534;28;20458;-65
2022/07/15 10:48:43;;;;;;;3.60;0.70;;;;;;;;;;4995670;28;20054;-65
2022/07/15 10:51:10;;;;;;;8.07;0.90;;;;;;;;;;4985787;28;20046;-65
2022/07/15 10:53:44;;;;;;;3.75;1.13;;;;;;;;;;4974303;28;20055;-65
2022/07/15 10:56:30;;;;;;;3.67;0.80;;;;;;;;;;4985492;28;20518;-65
2022/07/15 10:59:09;;;;;;;2.03;0.60;;;;;;;;;;4985307;28;20529;-65
2022/07/15 11:01:36;;;;;;;3.45;0.93;;;;;;;;;;4969195;28;20057;-65
2022/07/15 11:04:11;;;;;;;2.97;0.70;;;;;;;;;;4984193;28;20104;-65
2022/07/15 11:06:56;;;;;;;2.92;0.68;;;;;;;;;;4989036;28;20103;-65
2022/07/15 11:09:42;;;;;;;3.53;0.90;;;;;;;;;;4985169;28;20075;-65
2022/07/15 11:12:08;;;;;;;5.25;0.90;;;;;;;;;;4968516;28;20089;-65
2022/07/15 11:14:43;;;;;;;4.25;0.77;;;;;;;;;;4987932;28;20565;-65
2022/07/15 11:17:10;;;;;;;6.32;0.85;;;;;;;;;;4972084;28;20038;-65
2022/07/15 11:19:37;;;;;;;5.75;0.73;;;;;;;;;;4973216;28;20111;-65
2022/07/15 11:22:03;;;;;;;3.25;0.80;;;;;;;;;;4980351;28;20501;-65
2022/07/15 11:24:29;;;;;;;3.05;0.73;;;;;;;;;;4976494;28;20125;-65
2022/07/15 11:27:00;;;;;;;4.10;1.00;;;;;;;;;;4992450;28;20069;-65
2022/07/15 11:29:26;;;;;;;2.53;0.60;;;;;;;;;;4988497;28;20039;-65
2022/07/15 11:31:52;;;;;;;6.22;1.00;;;;;;;;;;4991779;28;20039;-65
2022/07/15 11:34:18;;;;;;;2.65;0.85;;;;;;;;;;4990961;28;20034;-65
2022/07/15 11:36:44;;;;;;;4.03;0.70;;;;;;;;;;4976668;28;20050;-65
2022/07/15 11:39:11;;;;;;;6.55;1.23;;;;;;;;;;4990772;28;20047;-66
2022/07/15 11:44:32;;;;;;;4.95;0.95;;;;;;;;;;4994062;28;20430;-65
2022/07/15 11:46:59;;;;;;;4.95;0.90;;;;;;;;;;4992857;28;20086;-65
2022/07/15 11:49:27;;;;;;;4.07;1.00;;;;;;;;;;4989448;28;20050;-65
2022/07/15 11:51:54;;;;;;;4.93;0.88;;;;;;;;;;4983134;28;20054;-65
2022/07/15 11:54:20;;;;;;;3.25;0.60;;;;;;;;;;4983472;28;20188;-65
2022/07/15 11:56:54;;;;;;;4.43;0.98;;;;;;;;;;4978827;28;20054;-65
2022/07/15 11:59:20;;;;;;;4.00;0.90;;;;;;;;;;4981023;28;20046;-65
2022/07/15 12:01:46;;;;;;;3.50;1.10;;;;;;;;;;4978905;28;20203;-65
2022/07/15 12:04:13;;;;;;;4.25;1.10;;;;;;;;;;4978864;28;20734;-66
2022/07/15 12:06:39;;;;;;;6.15;1.25;;;;;;;;;;4981158;28;20030;-65
2022/07/15 12:09:08;;;;;;;4.10;1.13;;;;;;;;;;4986255;28;20509;-65
2022/07/15 12:11:36;;;;;;;3.05;0.75;;;;;;;;;;4984863;28;20049;-65
2022/07/15 12:14:02;;;;;;;3.53;0.85;;;;;;;;;;4982342;28;20435;-65
2022/07/15 12:16:29;;;;;;;5.10;1.25;;;;;;;;;;4984223;28;20039;-65
2022/07/15 12:18:56;;;;;;;5.53;1.05;;;;;;;;;;4966082;28;20046;-65
2022/07/15 12:21:23;;;;;;;4.97;1.25;;;;;;;;;;4984926;28;20057;-65
2022/07/15 12:23:59;;;;;;;3.70;0.90;;;;;;;;;;4984996;28;20038;-65
2022/07/15 12:26:26;;;;;;;5.68;0.82;;;;;;;;;;4984606;28;20439;-73
2022/07/15 12:28:56;;;;;;;3.88;1.02;;;;;;;;;;4970013;28;20101;-67
2022/07/15 12:31:26;;;;;;;5.45;0.93;;;;;;;;;;4983615;28;20046;-65
2022/07/15 12:33:53;;;;;;;4.80;0.95;;;;;;;;;;4983749;28;20115;-65
2022/07/15 12:36:21;;;;;;;4.63;1.15;;;;;;;;;;4981979;28;20046;-65
2022/07/15 12:39:02;;;;;;;3.78;1.42;;;;;;;;;;4983813;28;20129;-66
2022/07/15 12:41:28;;;;;;;4.47;0.82;;;;;;;;;;4973128;28;20050;-65
2022/07/15 12:43:56;;;;;;;3.90;1.38;;;;;;;;;;4972504;28;20053;-65
2022/07/15 12:46:41;;;;;;;9.35;1.83;;;;;;;;;;4983695;28;20042;-65
2022/07/15 12:49:07;;;;;;;5.38;1.13;;;;;;;;;;4963715;28;20205;-67
2022/07/15 12:51:34;;;;;;;4.68;1.00;;;;;;;;;;4981417;28;20112;-65
2022/07/15 12:54:04;;;;;;;3.30;1.00;;;;;;;;;;4964616;28;20049;-66
2022/07/15 12:56:30;;;;;;;4.32;1.38;;;;;;;;;;4979484;28;20050;-65
2022/07/15 12:58:57;;;;;;;5.70;1.00;;;;;;;;;;4978209;28;20107;-65
2022/07/15 13:01:23;;;;;;;4.10;1.45;;;;;;;;;;4982449;28;20104;-65
2022/07/15 13:03:52;;;;;;;1.48;0.70;;;;;;;;;;4959535;28;20489;-65
2022/07/15 13:06:19;;;;;;;3.13;0.93;;;;;;;;;;4977280;28;20155;-65
2022/07/15 13:08:45;;;;;;;4.38;0.95;;;;;;;;;;4959779;28;20053;-65
2022/07/15 13:11:11;;;;;;;5.85;0.98;;;;;;;;;;4977871;28;20452;-66
2022/07/15 13:13:39;;;;;;;3.15;1.13;;;;;;;;;;4977134;28;20893;-65
2022/07/15 13:16:06;;;;;;;3.42;0.90;;;;;;;;;;4980587;28;20498;-65
2022/07/15 13:18:32;;;;;;;13.82;1.15;;;;;;;;;;4977000;28;20050;-65
2022/07/15 13:20:59;;;;;;;3.58;1.10;;;;;;;;;;4975663;28;20248;-66
2022/07/15 13:23:26;;;;;;;2.33;0.85;;;;;;;;;;4978762;28;20057;-66
2022/07/15 13:25:53;;;;;;;5.45;0.90;;;;;;;;;;4977966;28;20094;-65
2022/07/15 13:28:20;;;;;;;4.80;1.00;;;;;;;;;;4980405;28;20061;-65
2022/07/15 13:30:47;;;;;;;3.22;0.95;;;;;;;;;;4979080;28;20042;-66
2022/07/15 13:33:13;;;;;;;2.70;0.80;;;;;;;;;;4980593;28;20061;-65
2022/07/15 13:35:39;;;;;;;3.88;1.10;;;;;;;;;;4983714;28;20042;-68
2022/07/15 13:38:06;;;;;;;5.28;1.10;;;;;;;;;;4964430;28;20061;-66
2022/07/15 13:40:32;;;;;;;5.45;0.95;;;;;;;;;;4981758;28;20058;-65
2022/07/15 13:42:58;;;;;;;6.65;1.50;;;;;;;;;;4967840;28;20042;-65
2022/07/15 13:45:24;;;;;;;5.18;0.93;;;;;;;;;;4983386;28;20159;-65
2022/07/15 13:47:51;;;;;;;5.18;1.20;;;;;;;;;;4983361;28;20072;-65
2022/07/15 13:53:10;;;;;;;5.10;1.42;;;;;;;;;;4980076;28;20042;-65
2022/07/15 13:55:39;;;;;;;4.55;1.10;;;;;;;;;;4978870;28;21529;-65
2022/07/15 13:58:05;;;;;;;5.15;1.10;;;;;;;;;;4980052;28;20053;-65
2022/07/15 14:00:31;;;;;;;3.47;0.93;;;;;;;;;;4978192;28;20327;-66
2022/07/15 14:02:57;;;;;;;4.85;1.08;;;;;;;;;;4979921;28;20077;-65
2022/07/15 14:05:24;;;;;;;5.80;1.40;;;;;;;;;;4976905;28;20136;-65
2022/07/15 14:07:50;;;;;;;5.80;1.25;;;;;;;;;;4975238;28;20146;-65
2022/07/15 14:10:17;;;;;;;3.70;1.10;;;;;;;;;;4969719;28;20454;-65
2022/07/15 14:12:43;;;;;;;7.07;1.02;;;;;;;;;;4988044;28;20130;-65
2022/07/15 14:15:09;;;;;;;5.90;1.23;;;;;;;;;;4968075;28;20196;-65
2022/07/15 14:17:36;;;;;;;3.42;0.90;;;;;;;;;;4979904;28;20085;-65
2022/07/15 14:20:02;;;;;;;5.30;1.10;;;;;;;;;;4972915;28;20076;-65
2022/07/15 14:22:30;;;;;;;4.22;1.02;;;;;;;;;;4970557;28;20137;-65
2022/07/15 14:24:56;;;;;;;4.53;1.02;;;;;;;;;;4984519;28;20136;-65
2022/07/15 14:27:23;;;;;;;3.88;1.20;;;;;;;;;;4987721;28;20046;-65
2022/07/15 14:29:50;;;;;;;3.20;0.88;;;;;;;;;;4982909;28;20050;-65
2022/07/15 14:32:16;;;;;;;4.72;0.90;;;;;;;;;;4985591;28;20517;-65
2022/07/15 14:34:42;;;;;;;5.20;1.13;;;;;;;;;;4983366;28;20143;-64
2022/07/15 14:37:09;;;;;;;6.10;1.27;;;;;;;;;;4984454;28;20053;-65
2022/07/15 14:39:35;;;;;;;8.52;1.23;;;;;;;;;;4984111;28;20046;-65
2022/07/15 14:42:01;;;;;;;5.78;1.60;;;;;;;;;;4983407;28;20049;-64
2022/07/15 14:44:27;;;;;;;7.47;1.55;;;;;;;;;;4982490;28;20057;-64
2022/07/15 14:46:54;;;;;;;10.18;2.03;;;;;;;;;;4984231;28;20129;-65
2022/07/15 14:49:20;;;;;;;6.40;1.40;;;;;;;;;;4965881;28;20053;-65
2022/07/15 14:51:46;;;;;;;8.55;1.70;;;;;;;;;;4983147;28;21714;-65
2022/07/15 14:54:12;;;;;;;4.55;1.40;;;;;;;;;;4965746;28;20651;-65
2022/07/15 14:56:38;;;;;;;5.95;1.40;;;;;;;;;;4982247;28;20045;-65